Time;durP1;ratioP1;P1;durP2;ratioP2;P2;SDS_P1;SDS_P2;PMS_P1;PMS_P2;Temp;Humidity;BMP_temperature;BMP_pressure;BME280_temperature;BME280_humidity;BME280_pressure;Samples;Min_cycle;Max_cycle;Signal;HPM_P1;HPM_P2
2023/10/27 00:01:49;;;;;;;8.30;5.63;;;;;;;10.63;88.74;98527.19;5025721;28;20218;-80
2023/10/27 00:04:15;;;;;;;6.37;5.77;;;;;;;10.52;89.22;98519.03;5024479;28;20230;-82
2023/10/27 00:06:41;;;;;;;6.00;5.43;;;;;;;10.52;88.41;98529.47;5023423;28;20222;-81
2023/10/27 00:09:08;;;;;;;5.80;5.10;;;;;;;10.42;88.16;98536.91;5024800;28;20223;-81
2023/10/27 00:11:36;;;;;;;5.80;5.30;;;;;;;10.34;88.50;98537.28;5021090;28;20203;-81
2023/10/27 00:14:03;;;;;;;6.77;6.27;;;;;;;10.34;89.30;98518.19;5024208;28;20252;-80
2023/10/27 00:16:29;;;;;;;6.83;6.23;;;;;;;10.40;89.57;98499.63;5025382;28;20202;-80
2023/10/27 00:18:56;;;;;;;6.80;6.13;;;;;;;10.36;90.22;98487.66;5026323;28;20239;-80
2023/10/27 00:21:22;;;;;;;5.90;5.30;;;;;;;10.28;89.18;98493.22;5027922;28;20228;-80
2023/10/27 00:23:48;;;;;;;6.20;5.60;;;;;;;10.28;88.51;98505.41;5026585;28;20203;-81
2023/10/27 00:26:15;;;;;;;5.87;5.47;;;;;;;10.25;88.14;98527.28;5024227;28;20226;-81
2023/10/27 00:28:45;;;;;;;6.60;5.87;;;;;;;10.15;88.08;98520.81;5024750;28;20234;-80
2023/10/27 00:31:12;;;;;;;5.50;5.00;;;;;;;10.12;88.29;98521.78;5025117;28;20207;-80
2023/10/27 00:33:38;;;;;;;5.67;5.17;;;;;;;10.10;88.26;98509.75;5024529;28;20214;-80
2023/10/27 00:36:06;;;;;;;6.30;5.80;;;;;;;10.16;88.61;98514.69;5024799;28;20256;-81
2023/10/27 00:38:32;;;;;;;5.43;4.93;;;;;;;10.15;88.51;98510.41;5023190;28;20222;-81
2023/10/27 00:40:59;;;;;;;6.03;5.53;;;;;;;10.07;90.22;98494.28;5025005;28;20586;-81
2023/10/27 00:43:27;;;;;;;7.03;5.90;;;;;;;10.09;91.92;98448.97;5023555;28;20216;-80
2023/10/27 00:45:55;;;;;;;8.27;7.57;;;;;;;10.13;92.23;98426.19;5024348;28;20415;-80
2023/10/27 00:48:22;;;;;;;8.80;8.00;;;;;;;10.22;92.63;98401.41;5023525;28;20222;-82
2023/10/27 00:50:49;;;;;;;6.80;6.20;;;;;;;10.21;92.49;98391.91;5028621;28;20206;-81
2023/10/27 00:53:19;;;;;;;8.27;7.47;;;;;;;10.23;92.55;98390.94;5022503;28;20230;-82
2023/10/27 00:55:46;;;;;;;8.00;7.20;;;;;;;10.21;91.37;98410.16;5025650;28;20199;-80
2023/10/27 00:58:14;;;;;;;8.03;7.23;;;;;;;10.19;91.47;98415.47;5037227;28;20241;-81
2023/10/27 01:00:41;;;;;;;9.37;8.40;;;;;;;10.29;91.76;98413.25;5039137;28;20203;-81
2023/10/27 01:03:09;;;;;;;9.87;8.77;;;;;;;10.28;92.82;98398.50;5038768;28;20206;-81
2023/10/27 01:05:35;;;;;;;9.17;8.27;;;;;;;10.22;93.57;98370.97;5027483;28;20234;-81
2023/10/27 01:08:02;;;;;;;8.47;7.67;;;;;;;10.29;91.36;98395.00;5025304;28;20222;-80
2023/10/27 01:10:29;;;;;;;7.97;7.37;;;;;;;10.30;89.18;98428.81;5027157;28;20207;-80
2023/10/27 01:12:55;;;;;;;7.97;7.27;;;;;;;10.24;87.99;98462.16;5024383;28;20229;-81
2023/10/27 01:15:22;;;;;;;8.23;7.43;;;;;;;10.15;87.55;98484.31;5027283;28;20202;-81
2023/10/27 01:17:48;;;;;;;8.37;7.47;;;;;;;10.18;87.85;98493.75;5035278;28;20233;-81
2023/10/27 01:20:16;;;;;;;9.47;8.50;;;;;;;10.19;88.25;98500.63;5021400;28;20212;-82
2023/10/27 01:22:46;;;;;;;10.27;9.30;;;;;;;10.12;89.56;98487.06;5036280;28;20205;-81
2023/10/27 01:25:13;;;;;;;14.60;8.90;;;;;;;9.93;91.77;98454.09;5041272;28;20206;-81
2023/10/27 01:27:40;;;;;;;23.53;9.13;;;;;;;9.60;95.13;98398.38;5038100;28;20833;-82
2023/10/27 01:30:08;;;;;;;27.27;7.50;;;;;;;9.46;96.00;98363.41;5036770;28;20213;-81
2023/10/27 01:32:34;;;;;;;30.57;6.40;;;;;;;9.40;98.26;98313.41;5050154;28;20206;-81
2023/10/27 01:35:01;;;;;;;49.20;6.53;;;;;;;9.33;100.00;98271.19;5037409;28;20225;-80
2023/10/27 01:37:27;;;;;;;77.17;7.73;;;;;;;9.10;100.00;98226.31;5038211;28;20198;-81
2023/10/27 01:39:56;;;;;;;51.43;7.77;;;;;;;9.21;100.00;98176.31;5039443;28;20209;-81
2023/10/27 01:42:23;;;;;;;77.30;9.20;;;;;;;9.30;100.00;98156.81;5038926;28;20728;-81
2023/10/27 01:44:49;;;;;;;77.27;11.97;;;;;;;8.83;100.00;98136.59;5038315;28;20233;-82
2023/10/27 01:47:16;;;;;;;86.27;13.47;;;;;;;8.70;100.00;98094.72;5038498;28;20234;-82
2023/10/27 01:49:42;;;;;;;36.17;12.50;;;;;;;8.72;100.00;98065.13;5025758;28;20227;-81
2023/10/27 01:52:09;;;;;;;87.37;13.80;;;;;;;8.68;100.00;98067.94;5027078;28;20217;-82
2023/10/27 01:54:35;;;;;;;73.90;13.10;;;;;;;8.86;100.00;98056.63;5030879;28;20213;-81
2023/10/27 01:57:03;;;;;;;26.47;12.07;;;;;;;8.92;100.00;98066.72;5039364;28;20202;-82
2023/10/27 01:59:29;;;;;;;25.83;12.30;;;;;;;9.14;100.00;98073.44;5038036;28;20226;-82
2023/10/27 02:01:56;;;;;;;11.93;10.73;;;;;;;9.26;100.00;98078.00;5039074;28;20229;-82
2023/10/27 02:04:22;;;;;;;13.23;10.20;;;;;;;9.42;100.00;98098.88;5039022;28;20213;-82
2023/10/27 02:06:49;;;;;;;11.43;10.40;;;;;;;9.44;100.00;98130.91;5046534;28;20232;-81
2023/10/27 02:09:15;;;;;;;27.93;10.60;;;;;;;9.55;100.00;98161.56;5053397;28;20237;-81
2023/10/27 02:11:42;;;;;;;9.53;8.83;;;;;;;9.65;100.00;98182.78;5036837;28;20589;-81
2023/10/27 02:14:10;;;;;;;9.47;8.67;;;;;;;9.54;98.43;98223.25;5037609;28;20608;-81
2023/10/27 02:16:37;;;;;;;8.43;7.83;;;;;;;9.69;98.08;98244.22;5029745;28;20198;-81
2023/10/27 02:19:03;;;;;;;8.70;8.00;;;;;;;9.71;96.91;98268.44;5036538;28;20242;-80
2023/10/27 02:21:29;;;;;;;9.23;8.33;;;;;;;9.69;95.86;98297.19;5021799;28;20216;-82
2023/10/27 02:23:56;;;;;;;8.67;7.97;;;;;;;9.73;94.93;98313.50;5038878;28;20213;-81
2023/10/27 02:26:22;;;;;;;8.27;7.57;;;;;;;9.81;94.33;98333.94;5038330;28;20221;-81
2023/10/27 02:28:49;;;;;;;7.83;7.30;;;;;;;9.82;93.88;98349.53;5030823;28;20911;-81
2023/10/27 02:31:16;;;;;;;8.93;5.70;;;;;;;9.13;93.83;98377.09;5018310;28;20207;-81
2023/10/27 02:33:43;;;;;;;6.67;6.17;;;;;;;8.93;95.80;98341.59;5037915;28;20202;-80
2023/10/27 02:36:09;;;;;;;6.50;5.97;;;;;;;9.22;96.04;98325.53;5038069;28;20233;-80
2023/10/27 02:38:36;;;;;;;9.83;5.97;;;;;;;9.41;95.29;98320.28;5036861;28;20252;-81
2023/10/27 02:41:08;;;;;;;13.70;6.07;;;;;;;9.26;94.57;98338.34;5037713;28;20205;-81
2023/10/27 02:43:34;;;;;;;5.67;5.27;;;;;;;9.36;94.51;98337.91;5036804;28;20248;-81
2023/10/27 02:46:01;;;;;;;5.60;5.20;;;;;;;9.47;94.49;98348.63;5038094;28;20204;-81
2023/10/27 02:48:29;;;;;;;5.50;5.00;;;;;;;9.48;94.29;98340.75;5037224;28;20231;-80
2023/10/27 02:50:56;;;;;;;5.30;4.90;;;;;;;9.50;93.49;98353.69;5037709;28;20206;-81
2023/10/27 02:53:22;;;;;;;5.40;5.00;;;;;;;9.50;93.22;98366.72;5036682;28;20767;-82
2023/10/27 02:55:48;;;;;;;5.30;4.90;;;;;;;9.47;92.89;98369.47;5036187;28;20209;-81
2023/10/27 02:58:15;;;;;;;5.67;5.27;;;;;;;9.42;92.47;98374.91;5035333;28;20226;-80
2023/10/27 03:00:42;;;;;;;6.33;5.83;;;;;;;9.46;93.01;98370.41;5016607;28;20210;-82
2023/10/27 03:03:09;;;;;;;5.63;5.13;;;;;;;9.43;93.03;98365.31;5034893;28;20210;-81
2023/10/27 03:05:37;;;;;;;5.80;5.40;;;;;;;9.28;92.80;98372.94;5036084;28;20210;-80
2023/10/27 03:08:04;;;;;;;7.23;6.60;;;;;;;9.41;92.92;98370.59;5035699;28;20293;-81
2023/10/27 03:10:31;;;;;;;6.17;5.67;;;;;;;9.38;92.68;98370.75;5035624;28;20209;-81
2023/10/27 03:12:58;;;;;;;7.67;6.97;;;;;;;9.42;92.24;98374.91;5035039;28;20199;-81
2023/10/27 03:15:24;;;;;;;7.50;6.43;;;;;;;9.48;91.62;98384.19;5035657;28;20210;-81
2023/10/27 03:17:51;;;;;;;7.30;6.00;;;;;;;9.43;91.63;98387.00;5035428;28;20735;-81
2023/10/27 03:20:17;;;;;;;8.27;6.43;;;;;;;9.50;90.47;98411.00;5034905;28;20202;-81
2023/10/27 03:22:45;;;;;;;5.60;5.10;;;;;;;9.44;90.14;98425.16;5034896;28;20244;-81
2023/10/27 03:25:11;;;;;;;7.13;5.87;;;;;;;9.46;90.83;98412.91;5035641;28;20210;-81
2023/10/27 03:27:38;;;;;;;7.57;6.03;;;;;;;9.44;91.41;98411.28;5035259;28;20225;-80
2023/10/27 03:30:05;;;;;;;9.87;7.17;;;;;;;9.39;92.10;98389.81;5020075;28;20581;-81
2023/10/27 03:32:32;;;;;;;10.17;6.77;;;;;;;9.38;92.67;98381.16;5026140;28;20202;-80
2023/10/27 03:35:00;;;;;;;8.30;6.70;;;;;;;9.29;93.08;98379.00;5035452;28;20202;-81
2023/10/27 03:37:26;;;;;;;6.40;5.80;;;;;;;9.44;93.16;98367.03;5036975;28;20272;-79
2023/10/27 03:39:54;;;;;;;14.93;6.03;;;;;;;9.38;92.54;98378.56;5035769;28;20617;-81
2023/10/27 03:42:20;;;;;;;6.60;5.97;;;;;;;9.31;92.39;98387.56;5035080;28;20206;-81
2023/10/27 03:44:47;;;;;;;6.30;5.80;;;;;;;9.41;92.30;98386.22;5034938;28;20205;-81
2023/10/27 03:47:15;;;;;;;6.40;5.90;;;;;;;9.46;92.07;98386.03;5035867;28;20229;-81
2023/10/27 03:49:41;;;;;;;5.93;5.53;;;;;;;9.45;91.54;98389.53;5034753;28;20221;-81
2023/10/27 03:52:09;;;;;;;5.33;4.93;;;;;;;9.38;91.35;98404.59;5035755;28;20228;-81
2023/10/27 03:54:35;;;;;;;5.53;5.13;;;;;;;9.33;92.00;98399.59;5035461;28;20217;-81
2023/10/27 03:57:03;;;;;;;5.40;5.00;;;;;;;9.37;92.69;98382.06;5043582;28;20202;-81
2023/10/27 03:59:30;;;;;;;5.30;4.90;;;;;;;9.38;91.95;98378.56;5025019;28;20230;-81
2023/10/27 04:01:56;;;;;;;5.33;4.93;;;;;;;9.35;91.86;98383.91;5020203;28;20735;-81
2023/10/27 04:04:22;;;;;;;5.60;5.20;;;;;;;9.42;90.99;98395.72;5034941;28;20202;-81
2023/10/27 04:06:49;;;;;;;5.37;4.97;;;;;;;9.28;91.16;98406.78;5035640;28;20218;-80
2023/10/27 04:09:15;;;;;;;5.17;4.77;;;;;;;9.38;91.29;98396.78;5035117;28;20249;-80
2023/10/27 04:11:42;;;;;;;5.20;4.90;;;;;;;9.44;90.65;98404.31;5035291;28;20708;-81
2023/10/27 04:14:09;;;;;;;5.00;4.67;;;;;;;9.42;90.43;98410.53;5043294;28;20206;-81
2023/10/27 04:16:37;;;;;;;5.73;5.30;;;;;;;9.39;90.44;98410.66;5024081;28;20221;-80
2023/10/27 04:19:03;;;;;;;4.87;4.47;;;;;;;9.41;90.71;98414.03;5020617;28;20272;-81
2023/10/27 04:21:30;;;;;;;5.40;5.00;;;;;;;9.27;90.59;98409.47;5035552;28;20202;-80
2023/10/27 04:23:56;;;;;;;5.30;4.80;;;;;;;9.18;90.60;98404.66;5034795;28;20202;-81
2023/10/27 04:26:23;;;;;;;5.10;4.80;;;;;;;9.20;90.52;98406.31;5035528;28;20233;-81
2023/10/27 04:28:49;;;;;;;4.37;4.07;;;;;;;9.12;90.59;98406.66;5034535;28;20222;-80
2023/10/27 04:31:17;;;;;;;4.70;4.40;;;;;;;9.13;90.64;98392.72;5035534;28;20213;-80
2023/10/27 04:33:47;;;;;;;5.27;4.87;;;;;;;9.15;90.88;98382.22;5034874;28;20202;-81
2023/10/27 04:36:14;;;;;;;5.30;4.90;;;;;;;9.21;90.92;98381.09;5034918;28;20202;-81
2023/10/27 04:38:41;;;;;;;4.73;4.37;;;;;;;9.27;90.71;98381.66;5035451;28;20250;-80
2023/10/27 04:41:07;;;;;;;5.20;4.20;;;;;;;9.29;90.47;98374.63;5035528;28;20616;-81
2023/10/27 04:43:33;;;;;;;5.00;4.60;;;;;;;9.30;90.44;98385.91;5033956;28;20685;-81
2023/10/27 04:46:00;;;;;;;4.27;3.90;;;;;;;9.33;90.52;98388.34;5029351;28;20214;-80
2023/10/27 04:48:28;;;;;;;4.30;4.00;;;;;;;9.33;90.64;98388.34;5015383;28;20243;-80
2023/10/27 04:50:58;;;;;;;4.17;3.87;;;;;;;9.27;90.80;98388.63;5034532;28;20245;-81
2023/10/27 04:53:25;;;;;;;4.37;3.97;;;;;;;9.24;91.37;98380.97;5045126;28;20218;-81
2023/10/27 04:55:51;;;;;;;5.50;4.97;;;;;;;9.21;91.20;98374.13;5053058;28;20186;-80
2023/10/27 04:58:18;;;;;;;5.30;4.90;;;;;;;9.17;91.81;98369.16;5055010;28;20217;-81
2023/10/27 05:00:45;;;;;;;6.27;5.77;;;;;;;8.98;93.41;98346.59;5048456;28;20202;-82
2023/10/27 05:03:12;;;;;;;6.23;5.10;;;;;;;8.69;95.40;98308.91;5039940;28;20213;-81
2023/10/27 05:05:39;;;;;;;4.93;4.53;;;;;;;8.82;95.82;98273.63;5038640;28;20219;-81
2023/10/27 05:08:06;;;;;;;5.27;4.87;;;;;;;9.04;95.67;98264.78;5038668;28;20246;-81
2023/10/27 05:10:32;;;;;;;5.37;4.97;;;;;;;9.05;95.21;98263.88;5039121;28;20209;-82
2023/10/27 05:12:59;;;;;;;5.50;5.10;;;;;;;9.16;94.79;98264.22;5038982;28;20206;-81
2023/10/27 05:15:26;;;;;;;4.73;4.40;;;;;;;9.18;94.12;98274.53;5038664;28;20217;-81
2023/10/27 05:17:52;;;;;;;5.20;4.70;;;;;;;9.22;93.19;98289.94;5019249;28;20223;-82
2023/10/27 05:20:19;;;;;;;5.40;5.00;;;;;;;9.16;93.31;98292.84;5034612;28;20221;-81
2023/10/27 05:22:47;;;;;;;5.97;5.47;;;;;;;9.25;93.32;98304.56;5038650;28;20214;-81
2023/10/27 05:25:13;;;;;;;6.37;5.73;;;;;;;9.24;92.57;98308.09;5039412;28;20665;-81
2023/10/27 05:27:40;;;;;;;6.87;6.20;;;;;;;9.24;92.64;98319.34;5038944;28;20233;-81
2023/10/27 05:30:07;;;;;;;7.13;6.40;;;;;;;9.33;92.19;98318.88;5028346;28;20206;-81
2023/10/27 05:32:34;;;;;;;10.23;9.43;;;;;;;9.34;91.65;98338.81;5019767;28;20204;-81
2023/10/27 05:35:00;;;;;;;9.50;8.60;;;;;;;9.34;91.36;98351.81;5038875;28;20580;-81
2023/10/27 05:37:26;;;;;;;8.80;8.07;;;;;;;9.34;92.11;98344.00;5039134;28;20206;-79
2023/10/27 05:39:54;;;;;;;8.70;7.90;;;;;;;9.37;92.05;98347.38;5047392;28;20213;-81
2023/10/27 05:42:21;;;;;;;8.40;7.70;;;;;;;9.39;91.93;98348.16;5038471;28;20218;-80
2023/10/27 05:44:47;;;;;;;8.23;7.63;;;;;;;9.37;91.99;98347.38;5038158;28;20598;-81
2023/10/27 05:47:15;;;;;;;7.73;7.13;;;;;;;9.39;91.89;98348.16;5039396;28;20226;-80
2023/10/27 05:49:42;;;;;;;7.20;6.60;;;;;;;9.40;92.04;98345.50;5046126;28;20226;-81
2023/10/27 05:52:08;;;;;;;5.70;5.23;;;;;;;9.48;91.82;98350.34;5038485;28;20206;-81
2023/10/27 05:54:35;;;;;;;7.33;6.73;;;;;;;9.49;91.36;98352.88;5038960;28;20214;-81
2023/10/27 05:57:03;;;;;;;7.20;6.60;;;;;;;9.41;91.42;98359.34;5038682;28;20202;-81
2023/10/27 05:59:29;;;;;;;7.40;6.67;;;;;;;9.43;91.25;98347.94;5036977;28;20254;-81
2023/10/27 06:01:56;;;;;;;5.77;5.37;;;;;;;9.40;91.59;98353.31;5018818;28;20207;-81
2023/10/27 06:04:23;;;;;;;6.30;5.80;;;;;;;9.47;91.43;98348.63;5041884;28;20686;-82
2023/10/27 06:06:49;;;;;;;7.10;6.60;;;;;;;9.43;91.71;98352.31;5038761;28;20233;-81
2023/10/27 06:09:15;;;;;;;7.40;6.00;;;;;;;9.47;91.64;98339.06;5038546;28;20232;-81
2023/10/27 06:11:42;;;;;;;7.10;6.40;;;;;;;9.47;91.44;98346.84;5038454;28;20210;-82
2023/10/27 06:14:10;;;;;;;7.33;6.73;;;;;;;9.47;91.72;98341.66;5038339;28;20202;-81
2023/10/27 06:16:37;;;;;;;6.43;5.93;;;;;;;9.47;91.76;98335.59;5038244;28;20210;-82
2023/10/27 06:19:04;;;;;;;6.03;5.53;;;;;;;9.46;91.70;98342.59;5038285;28;20226;-82
2023/10/27 06:21:31;;;;;;;7.03;6.53;;;;;;;9.40;92.19;98335.06;5038447;28;20257;-81
2023/10/27 06:23:57;;;;;;;8.63;6.37;;;;;;;9.40;92.25;98334.25;5037866;28;20673;-81
2023/10/27 06:26:25;;;;;;;6.47;5.97;;;;;;;9.36;92.76;98333.53;5038183;28;20210;-81
2023/10/27 06:28:52;;;;;;;6.53;5.93;;;;;;;9.43;92.91;98321.88;5036899;28;20226;-81
2023/10/27 06:31:20;;;;;;;7.73;6.73;;;;;;;9.47;93.00;98317.38;5023510;28;20298;-81
2023/10/27 06:33:47;;;;;;;8.47;6.50;;;;;;;9.46;93.34;98313.94;5028948;28;20214;-81
2023/10/27 06:36:13;;;;;;;7.40;6.73;;;;;;;9.55;93.82;98310.03;5037473;28;20723;-81
2023/10/27 06:38:39;;;;;;;7.87;7.07;;;;;;;9.61;93.84;98309.72;5037574;28;20225;-81
2023/10/27 06:41:06;;;;;;;9.63;8.30;;;;;;;9.67;93.80;98304.25;5038160;28;20206;-81
2023/10/27 06:43:32;;;;;;;9.30;7.20;;;;;;;9.63;94.95;98281.88;5037707;28;20213;-81
2023/10/27 06:45:59;;;;;;;8.13;7.33;;;;;;;9.70;94.95;98271.97;5038546;28;20198;-82
2023/10/27 06:48:27;;;;;;;9.37;7.77;;;;;;;9.80;94.77;98272.34;5038410;28;20235;-81
2023/10/27 06:50:53;;;;;;;8.83;7.77;;;;;;;9.84;94.95;98271.28;5037932;28;20225;-81
2023/10/27 06:53:19;;;;;;;10.00;8.93;;;;;;;9.86;95.48;98277.25;5046247;28;20213;-80
2023/10/27 06:55:46;;;;;;;9.20;8.30;;;;;;;9.89;95.72;98261.44;5038401;28;20210;-79
2023/10/27 06:58:12;;;;;;;11.03;9.93;;;;;;;9.98;95.54;98250.56;5037419;28;20226;-81
2023/10/27 07:00:39;;;;;;;10.80;9.80;;;;;;;10.04;95.55;98257.22;5028584;28;20558;-81
2023/10/27 07:03:05;;;;;;;12.23;10.17;;;;;;;10.10;95.42;98268.16;5023833;28;20202;-82
2023/10/27 07:05:33;;;;;;;9.83;8.90;;;;;;;10.10;96.02;98256.91;5039298;28;20214;-83
2023/10/27 07:07:59;;;;;;;10.97;9.83;;;;;;;10.14;96.17;98256.66;5038158;28;20612;-83
2023/10/27 07:10:26;;;;;;;11.40;10.07;;;;;;;10.13;96.41;98251.53;5038478;28;20285;-82
2023/10/27 07:12:52;;;;;;;10.00;9.10;;;;;;;10.20;96.15;98247.66;5037913;28;20603;-82
2023/10/27 07:15:19;;;;;;;10.73;9.73;;;;;;;10.27;95.83;98258.63;5038118;28;20210;-83
2023/10/27 07:17:46;;;;;;;12.20;10.47;;;;;;;10.33;95.26;98266.16;5038886;28;20629;-83
2023/10/27 07:20:12;;;;;;;11.80;10.60;;;;;;;10.35;95.33;98266.91;5038447;28;20214;-82
2023/10/27 07:22:40;;;;;;;11.00;9.90;;;;;;;10.40;95.23;98275.31;5038593;28;20210;-83
2023/10/27 07:25:07;;;;;;;10.17;9.27;;;;;;;10.39;95.01;98278.88;5038738;28;20210;-83
2023/10/27 07:27:34;;;;;;;11.23;10.17;;;;;;;10.39;94.83;98284.09;5037490;28;20210;-83
2023/10/27 07:30:01;;;;;;;12.97;11.87;;;;;;;10.36;94.63;98289.44;5038725;28;20183;-82
2023/10/27 07:32:27;;;;;;;13.53;12.23;;;;;;;10.39;94.97;98289.31;5033229;28;20218;-81
2023/10/27 07:34:54;;;;;;;12.63;11.43;;;;;;;10.42;95.61;98285.69;5056897;28;20216;-81
2023/10/27 07:37:23;;;;;;;13.77;10.10;;;;;;;10.43;95.49;98277.78;5056972;28;20193;-82
2023/10/27 07:39:51;;;;;;;10.87;9.87;;;;;;;10.43;95.09;98290.81;5057325;28;20210;-82
2023/10/27 07:42:17;;;;;;;12.70;11.40;;;;;;;10.45;94.79;98298.56;5047364;28;20198;-81
2023/10/27 07:44:43;;;;;;;11.60;10.53;;;;;;;10.44;93.85;98313.34;5033086;28;20202;-80
2023/10/27 07:47:10;;;;;;;11.37;10.37;;;;;;;10.43;94.00;98316.06;5028041;28;20207;-80
2023/10/27 07:49:37;;;;;;;11.17;10.17;;;;;;;10.42;94.24;98316.97;5027000;28;20226;-82
2023/10/27 07:52:05;;;;;;;10.57;9.70;;;;;;;10.39;94.80;98309.34;5031252;28;20214;-81
2023/10/27 07:54:32;;;;;;;14.50;10.37;;;;;;;10.40;94.24;98311.84;5024465;28;20199;-82
2023/10/27 07:57:00;;;;;;;11.03;9.00;;;;;;;10.43;94.27;98310.84;5025828;28;20208;-81
2023/10/27 07:59:27;;;;;;;9.43;8.63;;;;;;;10.45;93.94;98316.84;5025330;28;20218;-81
2023/10/27 08:01:54;;;;;;;9.73;8.93;;;;;;;10.41;94.03;98320.53;5027073;28;20203;-82
2023/10/27 08:04:21;;;;;;;9.30;8.50;;;;;;;10.44;94.09;98318.56;5028960;28;20207;-81
2023/10/27 08:06:48;;;;;;;8.73;8.03;;;;;;;10.46;94.31;98319.34;5026249;28;20222;-81
2023/10/27 08:09:14;;;;;;;9.57;8.77;;;;;;;10.45;94.41;98314.22;5025764;28;20266;-81
2023/10/27 08:11:41;;;;;;;9.33;8.43;;;;;;;10.47;94.33;98315.81;5025880;28;20199;-82
2023/10/27 08:14:10;;;;;;;9.20;8.40;;;;;;;10.49;94.58;98313.97;5025039;28;20700;-81
2023/10/27 08:16:37;;;;;;;9.30;8.60;;;;;;;10.52;94.27;98316.44;5027559;28;20207;-84
2023/10/27 08:19:06;;;;;;;10.33;8.60;;;;;;;10.54;94.43;98318.94;5026788;28;20241;-82
2023/10/27 08:21:32;;;;;;;10.80;9.43;;;;;;;10.54;94.55;98324.16;5025126;28;20206;-82
2023/10/27 08:24:01;;;;;;;9.07;8.33;;;;;;;10.55;94.64;98318.03;5023926;28;20581;-81
2023/10/27 08:26:28;;;;;;;10.27;9.30;;;;;;;10.59;94.86;98318.72;5027063;28;20210;-82
2023/10/27 08:28:54;;;;;;;9.27;8.37;;;;;;;10.63;95.06;98321.06;5027262;28;20313;-81
2023/10/27 08:31:22;;;;;;;10.93;9.03;;;;;;;10.65;94.87;98311.38;5033815;28;20217;-82
2023/10/27 08:33:50;;;;;;;11.27;9.43;;;;;;;10.68;94.88;98310.38;5027368;28;20207;-81
2023/10/27 08:36:19;;;;;;;10.23;9.37;;;;;;;10.70;94.92;98313.75;5028926;28;20229;-82
2023/10/27 08:38:48;;;;;;;10.93;9.83;;;;;;;10.68;94.89;98316.47;5030970;28;20218;-82
2023/10/27 08:41:15;;;;;;;12.40;10.87;;;;;;;10.70;94.81;98316.34;5029260;28;20210;-81
2023/10/27 08:43:42;;;;;;;10.80;9.80;;;;;;;10.69;94.81;98315.50;5029113;28;20210;-82
2023/10/27 08:46:09;;;;;;;10.57;9.50;;;;;;;10.67;95.12;98314.75;5029549;28;20221;-83
2023/10/27 08:48:37;;;;;;;9.60;8.80;;;;;;;10.68;94.81;98319.06;5028166;28;20621;-82
2023/10/27 08:51:05;;;;;;;10.53;9.50;;;;;;;10.69;94.77;98325.13;5028779;28;20683;-82
2023/10/27 08:53:31;;;;;;;9.50;8.70;;;;;;;10.70;95.51;98319.81;5030886;28;20202;-82
2023/10/27 08:56:00;;;;;;;9.83;8.97;;;;;;;10.71;95.39;98316.28;5029599;28;20293;-82
2023/10/27 08:58:27;;;;;;;9.53;8.73;;;;;;;10.73;95.36;98316.19;5034052;28;20219;-82
2023/10/27 09:00:54;;;;;;;10.47;9.57;;;;;;;10.74;95.47;98310.03;5033879;28;20202;-82
2023/10/27 09:03:20;;;;;;;10.77;9.77;;;;;;;10.75;95.77;98297.84;5035591;28;21073;-82
2023/10/27 09:05:48;;;;;;;9.73;8.93;;;;;;;10.76;96.32;98291.69;5034521;28;20202;-82
2023/10/27 09:08:14;;;;;;;9.80;8.90;;;;;;;10.80;96.10;98288.84;5033351;28;20278;-82
2023/10/27 09:10:41;;;;;;;10.07;9.07;;;;;;;10.81;96.17;98284.47;5035118;28;20233;-82
2023/10/27 09:13:09;;;;;;;10.23;9.13;;;;;;;10.86;96.33;98293.75;5031689;28;20290;-82
2023/10/27 09:15:44;;;;;;;10.47;9.53;;;;;;;10.87;96.28;98291.97;5033566;28;20234;-82
2023/10/27 09:18:10;;;;;;;13.90;9.70;;;;;;;10.90;96.41;98286.56;5031970;28;20268;-82
2023/10/27 09:20:49;;;;;;;10.07;9.17;;;;;;;10.93;96.52;98286.41;5033967;28;20202;-82
2023/10/27 09:23:15;;;;;;;10.77;9.80;;;;;;;10.96;96.81;98272.34;5031862;28;20701;-82
2023/10/27 09:25:42;;;;;;;11.07;9.83;;;;;;;11.00;96.64;98273.84;5032574;28;20214;-82
2023/10/27 09:28:08;;;;;;;11.70;10.60;;;;;;;11.02;96.82;98277.22;5028895;28;20234;-82
2023/10/27 09:30:37;;;;;;;11.30;10.30;;;;;;;11.04;96.76;98272.75;5033124;28;20217;-82
2023/10/27 09:33:12;;;;;;;11.20;10.07;;;;;;;11.08;97.25;98264.69;5034459;28;20202;-83
2023/10/27 09:35:39;;;;;;;11.23;10.13;;;;;;;11.09;97.54;98266.34;5033663;28;20206;-81
2023/10/27 09:38:10;;;;;;;10.60;9.67;;;;;;;11.16;97.27;98260.78;5032949;28;20288;-81
2023/10/27 09:40:38;;;;;;;12.20;11.10;;;;;;;11.21;96.97;98258.75;5031723;28;20198;-82
2023/10/27 09:43:09;;;;;;;11.20;10.10;;;;;;;11.25;97.31;98262.88;5035399;28;20206;-82
2023/10/27 09:45:37;;;;;;;12.57;11.43;;;;;;;11.28;97.20;98265.31;5036051;28;20202;-83
2023/10/27 09:48:06;;;;;;;11.70;10.70;;;;;;;11.32;97.28;98256.38;5036614;28;20225;-82
2023/10/27 09:50:33;;;;;;;11.43;10.27;;;;;;;11.36;97.13;98260.50;5033627;28;20735;-82
2023/10/27 09:53:02;;;;;;;11.40;10.17;;;;;;;11.41;97.14;98258.44;5035226;28;20202;-82
2023/10/27 09:55:31;;;;;;;11.10;10.00;;;;;;;11.46;96.98;98258.22;5032209;28;20249;-83
2023/10/27 09:58:00;;;;;;;11.83;10.83;;;;;;;11.48;97.10;98259.78;5034244;28;20222;-83
2023/10/27 10:00:29;;;;;;;12.73;10.80;;;;;;;11.54;97.19;98255.97;5030212;28;20201;-83
2023/10/27 10:02:59;;;;;;;11.13;10.10;;;;;;;11.59;97.62;98263.56;5034817;28;20209;-83
2023/10/27 10:05:26;;;;;;;11.50;10.40;;;;;;;11.63;97.69;98247.59;5029058;28;20229;-82
2023/10/27 10:07:54;;;;;;;12.73;11.43;;;;;;;11.72;99.01;98241.84;5025476;28;20845;-82
2023/10/27 10:10:23;;;;;;;12.90;11.27;;;;;;;11.78;99.09;98222.34;5026483;28;20286;-82
2023/10/27 10:13:05;;;;;;;11.93;10.77;;;;;;;11.88;99.07;98214.78;5029380;28;20205;-82
2023/10/27 10:15:33;;;;;;;12.03;11.03;;;;;;;11.94;99.04;98211.84;5030603;28;20203;-82
2023/10/27 10:18:00;;;;;;;12.07;10.87;;;;;;;11.97;98.15;98227.34;5031371;28;20260;-82
2023/10/27 10:20:57;;;;;;;11.63;10.53;;;;;;;11.31;100.00;98158.06;5028240;28;20254;-82
2023/10/27 10:23:25;;;;;;;11.83;10.67;;;;;;;11.85;100.00;98175.75;5028914;28;20210;-83
2023/10/27 10:25:55;;;;;;;11.47;10.27;;;;;;;11.98;99.77;98196.81;5028952;28;20285;-83
2023/10/27 10:28:29;;;;;;;12.93;11.60;;;;;;;12.04;98.33;98222.59;5027895;28;20226;-81
2023/10/27 10:31:23;;;;;;;13.23;11.47;;;;;;;12.05;97.34;98238.19;5029416;28;20268;-82
2023/10/27 10:33:51;;;;;;;13.40;12.13;;;;;;;12.07;97.26;98243.28;5028984;28;20222;-82
2023/10/27 10:36:25;;;;;;;12.60;11.30;;;;;;;12.08;97.13;98250.22;5033322;28;20256;-81
2023/10/27 10:38:59;;;;;;;12.90;11.70;;;;;;;12.08;97.32;98253.66;5027700;28;20874;-81
2023/10/27 10:41:59;;;;;;;14.13;12.87;;;;;;;12.03;98.30;98239.19;5027688;28;20227;-82
2023/10/27 10:44:33;;;;;;;13.53;12.33;;;;;;;12.07;98.61;98233.69;5027616;28;20203;-82
2023/10/27 10:47:03;;;;;;;12.93;11.83;;;;;;;11.19;100.00;98190.09;5029436;28;20210;-81
2023/10/27 10:49:30;;;;;;;13.43;12.33;;;;;;;12.02;100.00;98183.44;5028161;28;20252;-81
2023/10/27 10:51:57;;;;;;;12.87;11.77;;;;;;;12.08;98.57;98211.84;5027104;28;20204;-83
2023/10/27 10:54:30;;;;;;;13.63;12.43;;;;;;;12.13;98.29;98235.09;5025668;28;20205;-83
2023/10/27 10:57:12;;;;;;;12.43;11.33;;;;;;;12.20;98.06;98231.16;5023712;28;20202;-82
2023/10/27 10:59:56;;;;;;;13.03;11.10;;;;;;;12.26;97.42;98243.88;5028763;28;20223;-82
2023/10/27 11:02:22;;;;;;;13.47;12.27;;;;;;;12.30;97.10;98249.75;5031556;28;20262;-82
2023/10/27 11:04:49;;;;;;;13.67;12.40;;;;;;;12.31;96.90;98259.31;5025135;28;20198;-82
2023/10/27 11:07:16;;;;;;;14.20;12.93;;;;;;;12.26;97.76;98262.19;5024083;28;20262;-82
2023/10/27 11:09:43;;;;;;;13.73;12.27;;;;;;;12.23;98.49;98251.06;5024865;28;20233;-82
2023/10/27 11:12:25;;;;;;;14.00;12.70;;;;;;;12.29;98.48;98235.84;5023691;28;20207;-82
2023/10/27 11:14:52;;;;;;;14.53;13.17;;;;;;;12.28;98.78;98234.16;5026863;28;20207;-82
2023/10/27 11:17:19;;;;;;;15.33;13.73;;;;;;;12.25;98.92;98236.09;5028207;28;20198;-82
2023/10/27 11:19:53;;;;;;;16.77;12.50;;;;;;;12.28;98.54;98234.16;5028830;28;20224;-82
2023/10/27 11:22:23;;;;;;;14.00;12.70;;;;;;;12.30;98.35;98234.91;5027147;28;20211;-83
2023/10/27 11:24:50;;;;;;;14.20;12.70;;;;;;;12.38;98.22;98238.81;5033846;28;20206;-82
2023/10/27 11:27:23;;;;;;;13.63;12.43;;;;;;;12.35;98.01;98246.84;5037187;28;20684;-82
2023/10/27 11:30:01;;;;;;;13.37;12.17;;;;;;;12.41;98.02;98236.88;5038617;28;20235;-82
2023/10/27 11:32:28;;;;;;;13.63;12.43;;;;;;;12.48;97.63;98238.16;5020052;28;20626;-84
2023/10/27 11:34:58;;;;;;;13.63;12.47;;;;;;;12.50;97.76;98246.75;5035291;28;20200;-83